Dillon, Montana
Current Conditions -  °F | °C
As of 11:53 AM on Saturday 25 Oct 2014 (Local Time) from KDLN Reporting Station
Clear Clear  
Wind Chill: 46°   Ceiling: Unl
Heat Index: 48°   Visibility: 10mi
Dew Point: 41°   Wind: 5mph
Humidity: 77%   Direction: 330°NNW
Pressure: 29.95"   Gusts: NA
Location:  45.22°N, 112.64°W
Report Text: KDLN 251753Z AUTO 33004KT 10SM CLR 09/05 A2995 RMK AO2 SLP132 T00890050 10089 21017 58018
Loading
Personal Weather Stations






























Interactive Weather Map
Tropical Storm Tracking
New forecast layout! Learn more

10-Day Weather Forecast

Advertisements
Track Severe Weather on mobile